createdAt,value
2022-10-29T00:00:15.888Z,101827.91
2022-10-29T00:05:40.794Z,101818.72
2022-10-29T00:11:09.417Z,101813.03
2022-10-29T00:16:38.068Z,101813.41
2022-10-29T00:22:02.254Z,101804.59
2022-10-29T00:27:27.718Z,101803.56
2022-10-29T00:32:52.763Z,101802.72
2022-10-29T00:38:17.733Z,101795.63
2022-10-29T00:43:49.193Z,101796.09
2022-10-29T00:49:14.089Z,101795.44
2022-10-29T00:54:43.820Z,101794.22
2022-10-29T01:00:11.334Z,101796.09
2022-10-29T01:05:36.725Z,101792.72
2022-10-29T01:11:13.005Z,101785.88
2022-10-29T01:16:46.419Z,101791.97
2022-10-29T01:22:19.705Z,101786.06
2022-10-29T01:27:58.166Z,101787.94
2022-10-29T01:33:29.958Z,101776.06
2022-10-29T01:39:04.093Z,101776.91
2022-10-29T01:44:37.905Z,101766.34
2022-10-29T01:50:09.040Z,101754.03
2022-10-29T01:55:35.618Z,101752.25
2022-10-29T02:01:12.215Z,101745.13
2022-10-29T02:06:48.712Z,101741.66
2022-10-29T02:12:22.135Z,101742.88
2022-10-29T02:17:46.212Z,101735.75
2022-10-29T02:23:13.048Z,101732.69
2022-10-29T02:28:37.649Z,101736.31
2022-10-29T02:34:02.620Z,101738.06
2022-10-29T02:39:30.834Z,101734.59
2022-10-29T02:44:56.648Z,101728.44
2022-10-29T02:50:20.986Z,101727.81
2022-10-29T02:55:46.521Z,101723.59
2022-10-29T03:01:12.046Z,101737.44
2022-10-29T03:06:36.227Z,101735.78
2022-10-29T03:12:01.832Z,101723.38
2022-10-29T03:17:27.977Z,101729.50
2022-10-29T03:22:52.298Z,101722.88
2022-10-29T03:28:17.816Z,101715.44
2022-10-29T03:33:42.013Z,101708.66
2022-10-29T03:39:06.517Z,101708.09
2022-10-29T03:44:33.067Z,101694.19
2022-10-29T03:49:57.027Z,101689.88
2022-10-29T03:55:20.889Z,101693.69
2022-10-29T04:00:54.867Z,101681.25
2022-10-29T04:06:20.804Z,101677.34
2022-10-29T04:11:45.416Z,101676.53
2022-10-29T04:17:12.963Z,101670.81
2022-10-29T04:28:42.954Z,101674.56
2022-10-29T04:34:07.768Z,101677.34
2022-10-29T04:39:34.908Z,101684.22
2022-10-29T04:44:59.025Z,101679.78
2022-10-29T04:50:24.599Z,101685.09
2022-10-29T04:55:50.136Z,101678.88
2022-10-29T05:01:14.438Z,101674.81
2022-10-29T05:06:40.696Z,101670.03
2022-10-29T05:12:09.131Z,101659.19
2022-10-29T05:17:37.287Z,101655.59
2022-10-29T05:23:04.927Z,101662.69
2022-10-29T05:28:29.520Z,101660.06
2022-10-29T05:33:56.017Z,101660.81
2022-10-29T05:39:21.143Z,101658.38
2022-10-29T05:44:45.219Z,101659.34
2022-10-29T05:50:14.623Z,101640.00
2022-10-29T05:55:41.098Z,101621.09
2022-10-29T06:01:08.372Z,101624.84
2022-10-29T06:06:34.079Z,101629.16
2022-10-29T06:12:00.271Z,101626.59
2022-10-29T06:17:26.004Z,101616.13
2022-10-29T06:22:58.305Z,101611.34
2022-10-29T06:28:24.651Z,101614.59
2022-10-29T06:33:49.285Z,101609.16
2022-10-29T06:39:15.130Z,101612.16
2022-10-29T06:44:41.749Z,101615.16
2022-10-29T06:50:07.103Z,101628.09
2022-10-29T06:55:31.947Z,101628.50
2022-10-29T07:06:28.836Z,101639.72
2022-10-29T07:11:52.985Z,101640.50
2022-10-29T07:17:18.595Z,101644.75
2022-10-29T07:22:47.869Z,101634.66
2022-10-29T07:28:16.327Z,101637.44
2022-10-29T07:33:41.821Z,101627.94
2022-10-29T07:39:07.462Z,101631.69
2022-10-29T07:44:32.954Z,101613.19
2022-10-29T07:49:58.020Z,101607.56
2022-10-29T07:55:22.780Z,101612.19
2022-10-29T08:00:47.533Z,101618.09
2022-10-29T08:06:12.485Z,101629.38
2022-10-29T08:11:37.217Z,101616.00
2022-10-29T08:17:01.949Z,101618.63
2022-10-29T08:22:27.533Z,101604.38
2022-10-29T08:28:00.507Z,101602.13
2022-10-29T08:33:25.693Z,101589.19
2022-10-29T08:38:51.640Z,101589.09
2022-10-29T08:44:40.086Z,101594.31
2022-10-29T08:50:12.143Z,101598.72
2022-10-29T08:55:39.035Z,101591.34
2022-10-29T09:01:03.223Z,101593.81
2022-10-29T09:06:37.868Z,101589.88
2022-10-29T09:12:21.985Z,101572.56
2022-10-29T09:17:59.188Z,101555.75
2022-10-29T09:23:31.506Z,101548.81
2022-10-29T09:29:11.619Z,101529.41
2022-10-29T09:34:42.832Z,101522.38
2022-10-29T09:40:17.795Z,101509.38
2022-10-29T09:45:50.918Z,101496.13
2022-10-29T09:51:28.311Z,101481.13
2022-10-29T09:56:56.184Z,101468.56
2022-10-29T10:02:30.741Z,101470.75
2022-10-29T10:08:10.733Z,101467.25
2022-10-29T10:13:38.949Z,101457.38
2022-10-29T10:19:22.675Z,101439.06
2022-10-29T10:24:47.912Z,101431.06
2022-10-29T10:30:18.029Z,101417.50
2022-10-29T10:35:44.660Z,101426.22
2022-10-29T10:41:11.764Z,101433.84
2022-10-29T10:46:40.859Z,101429.81
2022-10-29T10:52:16.675Z,101425.16
2022-10-29T10:57:48.753Z,101435.66
2022-10-29T11:03:19.525Z,101406.59
2022-10-29T11:08:51.666Z,101397.78
2022-10-29T11:14:21.600Z,101393.78
2022-10-29T11:19:50.229Z,101384.59
2022-10-29T11:25:19.526Z,101361.66
2022-10-29T11:30:47.947Z,101354.97
2022-10-29T11:36:18.463Z,101350.44
2022-10-29T11:41:49.447Z,101351.53
2022-10-29T11:47:28.955Z,101339.34
2022-10-29T11:53:01.098Z,101334.69
2022-10-29T11:58:38.110Z,101330.78
2022-10-29T12:04:24.389Z,101330.78
2022-10-29T12:10:17.982Z,101317.66
2022-10-29T12:15:53.079Z,101314.41
2022-10-29T12:21:28.328Z,101311.59
2022-10-29T12:26:59.951Z,101299.75
2022-10-29T12:32:33.078Z,101288.09
2022-10-29T12:38:18.818Z,101284.66
2022-10-29T12:43:44.111Z,101276.78
2022-10-29T12:49:19.316Z,101259.41
2022-10-29T12:54:46.299Z,101260.59
2022-10-29T13:00:45.903Z,101246.41
2022-10-29T13:06:55.181Z,101236.38
2022-10-29T13:12:52.227Z,101242.94
2022-10-29T13:18:23.899Z,101244.25
2022-10-29T13:24:04.069Z,101236.66
2022-10-29T13:29:50.618Z,101236.63
2022-10-29T13:35:41.864Z,101231.34
2022-10-29T13:41:14.035Z,101218.84
2022-10-29T13:46:48.073Z,101221.47
2022-10-29T13:52:18.916Z,101210.63
2022-10-29T13:57:53.029Z,101204.72
2022-10-29T14:03:21.889Z,101209.66
2022-10-29T14:08:50.310Z,101192.28
2022-10-29T14:14:28.537Z,101191.25
2022-10-29T14:19:54.295Z,101183.47
2022-10-29T14:25:32.091Z,101185.28
2022-10-29T14:31:05.627Z,101185.63
2022-10-29T14:36:35.395Z,101180.03
2022-10-29T14:42:00.711Z,101180.16
2022-10-29T14:47:32.240Z,101168.94
2022-10-29T14:53:00.991Z,101166.50
2022-10-29T14:58:29.831Z,101155.66
2022-10-29T15:03:59.585Z,101148.75
2022-10-29T15:09:28.477Z,101158.88
2022-10-29T15:14:55.035Z,101147.66
2022-10-29T15:20:22.692Z,101160.94
2022-10-29T15:25:51.910Z,101153.88
2022-10-29T15:31:22.716Z,101152.66
2022-10-29T15:36:48.709Z,101150.41
2022-10-29T15:42:22.002Z,101149.66
2022-10-29T15:47:52.087Z,101147.78
2022-10-29T15:53:18.127Z,101150.41
2022-10-29T15:58:42.948Z,101154.19
2022-10-29T16:04:09.515Z,101159.47
2022-10-29T16:09:33.451Z,101144.59
2022-10-29T16:14:58.942Z,101128.47
2022-10-29T16:20:24.887Z,101128.72
2022-10-29T16:25:48.915Z,101127.88
2022-10-29T16:31:20.787Z,101122.72
2022-10-29T16:36:47.716Z,101109.09
2022-10-29T16:42:29.028Z,101101.09
2022-10-29T16:47:53.294Z,101091.41
2022-10-29T16:53:19.142Z,101094.75
2022-10-29T16:58:43.647Z,101085.13
2022-10-29T17:04:09.460Z,101095.63
2022-10-29T17:09:37.163Z,101077.00
2022-10-29T17:15:01.385Z,101063.81
2022-10-29T17:20:26.175Z,101066.34
2022-10-29T17:25:57.634Z,101054.66
2022-10-29T17:31:21.881Z,101061.00
2022-10-29T17:36:46.595Z,101057.47
2022-10-29T17:42:13.447Z,101038.22
2022-10-29T17:53:03.525Z,101020.38
2022-10-29T17:58:31.048Z,101017.44
2022-10-29T18:03:54.999Z,101010.31
2022-10-29T18:09:21.222Z,101020.38
2022-10-29T18:14:46.961Z,101012.66
2022-10-29T18:20:12.503Z,101012.84
2022-10-29T18:25:37.149Z,100995.44
2022-10-29T18:31:03.473Z,100992.44
2022-10-29T18:36:27.625Z,101007.63
2022-10-29T18:41:54.053Z,101006.38
2022-10-29T18:47:20.288Z,100997.59
2022-10-29T18:52:43.889Z,100978.78
2022-10-29T18:58:07.998Z,100983.38
2022-10-29T19:03:33.457Z,100974.16
2022-10-29T19:08:57.683Z,100948.66
2022-10-29T19:14:22.026Z,100940.53
2022-10-29T19:19:47.183Z,100950.78
2022-10-29T19:25:12.093Z,100950.56
2022-10-29T19:30:36.182Z,100938.69
2022-10-29T19:36:01.747Z,100904.97
2022-10-29T19:41:26.674Z,100906.03
2022-10-29T19:46:51.151Z,100896.03
2022-10-29T19:52:17.294Z,100914.69
2022-10-29T19:57:41.773Z,100909.88
2022-10-29T20:03:06.051Z,100906.75
2022-10-29T20:08:34.556Z,100892.09
2022-10-29T20:13:58.804Z,100888.94
2022-10-29T20:19:23.043Z,100862.19
2022-10-29T20:24:48.593Z,100865.13
2022-10-29T20:30:13.657Z,100855.69
2022-10-29T20:35:37.565Z,100865.50
2022-10-29T20:41:03.700Z,100888.50
2022-10-29T20:46:28.160Z,100873.00
2022-10-29T20:51:52.187Z,100873.00
2022-10-29T20:57:17.803Z,100863.84
2022-10-29T21:02:41.910Z,100852.53
2022-10-29T21:08:06.529Z,100886.44
2022-10-29T21:13:33.103Z,100867.28
2022-10-29T21:18:59.212Z,100871.97
2022-10-29T21:24:25.006Z,100838.53
2022-10-29T21:29:52.840Z,100856.94
2022-10-29T21:35:17.368Z,100850.63
2022-10-29T21:40:42.399Z,100828.44
2022-10-29T21:46:08.162Z,100828.41
2022-10-29T21:51:32.314Z,100787.25
2022-10-29T21:56:56.626Z,100799.16
2022-10-29T22:02:21.918Z,100770.72
2022-10-29T22:07:49.545Z,100791.84
2022-10-29T22:13:15.110Z,100771.94
2022-10-29T22:18:41.363Z,100769.03
2022-10-29T22:24:06.800Z,100756.28
2022-10-29T22:29:33.051Z,100725.22
2022-10-29T22:34:58.686Z,100720.91
2022-10-29T22:40:23.215Z,100713.41
2022-10-29T22:45:47.374Z,100696.06
2022-10-29T22:51:15.823Z,100724.66
2022-10-29T22:56:40.849Z,100684.75
2022-10-29T23:02:06.815Z,100681.59
2022-10-29T23:13:02.579Z,100698.06
2022-10-29T23:18:27.370Z,100711.84
2022-10-29T23:23:54.565Z,100699.31
2022-10-29T23:29:20.712Z,100672.91
2022-10-29T23:34:44.649Z,100702.97
2022-10-29T23:40:11.547Z,100664.47
2022-10-29T23:45:35.608Z,100649.50
2022-10-29T23:51:00.616Z,100653.75
2022-10-29T23:56:27.003Z,100640.00
